sensor_id;sensor_type;location;lat;lon;timestamp;P1;durP1;ratioP1;P2;durP2;ratioP2
65206;SDS011;58477;48.072;11.970;2022-12-10T00:02:25;33.42;;;19.00;;
65206;SDS011;58477;48.072;11.970;2022-12-10T00:04:51;35.00;;;19.00;;
65206;SDS011;58477;48.072;11.970;2022-12-10T00:07:16;44.38;;;22.67;;
65206;SDS011;58477;48.072;11.970;2022-12-10T00:09:42;40.58;;;21.63;;
65206;SDS011;58477;48.072;11.970;2022-12-10T00:12:07;36.55;;;20.17;;
65206;SDS011;58477;48.072;11.970;2022-12-10T00:14:32;41.90;;;21.42;;
65206;SDS011;58477;48.072;11.970;2022-12-10T00:16:58;39.72;;;20.63;;
65206;SDS011;58477;48.072;11.970;2022-12-10T00:19:23;37.53;;;19.88;;
65206;SDS011;58477;48.072;11.970;2022-12-10T00:21:49;42.67;;;20.20;;
65206;SDS011;58477;48.072;11.970;2022-12-10T00:24:14;39.13;;;20.40;;
65206;SDS011;58477;48.072;11.970;2022-12-10T00:26:40;42.05;;;20.15;;
65206;SDS011;58477;48.072;11.970;2022-12-10T00:29:06;34.45;;;20.45;;
65206;SDS011;58477;48.072;11.970;2022-12-10T00:31:34;42.78;;;21.08;;
65206;SDS011;58477;48.072;11.970;2022-12-10T00:34:02;39.28;;;20.42;;
65206;SDS011;58477;48.072;11.970;2022-12-10T00:36:34;40.58;;;21.42;;
65206;SDS011;58477;48.072;11.970;2022-12-10T00:39:02;38.92;;;20.65;;
65206;SDS011;58477;48.072;11.970;2022-12-10T00:41:29;44.13;;;21.42;;
65206;SDS011;58477;48.072;11.970;2022-12-10T00:43:54;43.28;;;22.67;;
65206;SDS011;58477;48.072;11.970;2022-12-10T00:46:20;44.92;;;22.20;;
65206;SDS011;58477;48.072;11.970;2022-12-10T00:48:46;57.80;;;25.65;;
65206;SDS011;58477;48.072;11.970;2022-12-10T00:51:16;57.28;;;24.05;;
65206;SDS011;58477;48.072;11.970;2022-12-10T00:53:44;60.72;;;25.10;;
65206;SDS011;58477;48.072;11.970;2022-12-10T00:56:12;62.92;;;24.92;;
65206;SDS011;58477;48.072;11.970;2022-12-10T00:58:39;54.25;;;23.73;;
65206;SDS011;58477;48.072;11.970;2022-12-10T01:01:09;53.85;;;23.52;;
65206;SDS011;58477;48.072;11.970;2022-12-10T01:03:37;76.63;;;28.90;;
65206;SDS011;58477;48.072;11.970;2022-12-10T01:06:10;67.40;;;26.23;;
65206;SDS011;58477;48.072;11.970;2022-12-10T01:08:38;66.03;;;24.95;;
65206;SDS011;58477;48.072;11.970;2022-12-10T01:11:04;77.50;;;27.40;;
65206;SDS011;58477;48.072;11.970;2022-12-10T01:13:30;70.22;;;24.25;;
65206;SDS011;58477;48.072;11.970;2022-12-10T01:15:56;88.85;;;25.10;;
65206;SDS011;58477;48.072;11.970;2022-12-10T01:18:23;96.47;;;25.58;;
65206;SDS011;58477;48.072;11.970;2022-12-10T01:20:48;96.72;;;26.48;;
65206;SDS011;58477;48.072;11.970;2022-12-10T01:23:14;82.07;;;27.15;;
65206;SDS011;58477;48.072;11.970;2022-12-10T01:25:39;80.28;;;25.70;;
65206;SDS011;58477;48.072;11.970;2022-12-10T01:28:06;133.15;;;26.98;;
65206;SDS011;58477;48.072;11.970;2022-12-10T01:30:31;86.78;;;26.85;;
65206;SDS011;58477;48.072;11.970;2022-12-10T01:32:57;110.93;;;27.45;;
65206;SDS011;58477;48.072;11.970;2022-12-10T01:35:22;78.45;;;27.50;;
65206;SDS011;58477;48.072;11.970;2022-12-10T01:37:49;82.82;;;26.67;;
65206;SDS011;58477;48.072;11.970;2022-12-10T01:40:14;92.30;;;28.25;;
65206;SDS011;58477;48.072;11.970;2022-12-10T01:42:40;104.07;;;27.58;;
65206;SDS011;58477;48.072;11.970;2022-12-10T01:45:07;117.63;;;27.15;;
65206;SDS011;58477;48.072;11.970;2022-12-10T01:47:34;104.38;;;26.77;;
65206;SDS011;58477;48.072;11.970;2022-12-10T01:50:02;101.25;;;28.17;;
65206;SDS011;58477;48.072;11.970;2022-12-10T01:52:30;76.30;;;27.08;;
65206;SDS011;58477;48.072;11.970;2022-12-10T01:54:55;74.13;;;25.77;;
65206;SDS011;58477;48.072;11.970;2022-12-10T01:57:22;70.30;;;24.23;;
65206;SDS011;58477;48.072;11.970;2022-12-10T01:59:52;65.93;;;25.40;;
65206;SDS011;58477;48.072;11.970;2022-12-10T02:13:19;60.33;;;21.85;;
65206;SDS011;58477;48.072;11.970;2022-12-10T02:16:03;53.97;;;21.70;;
65206;SDS011;58477;48.072;11.970;2022-12-10T02:21:00;62.67;;;22.67;;
65206;SDS011;58477;48.072;11.970;2022-12-10T02:23:35;53.13;;;20.90;;
65206;SDS011;58477;48.072;11.970;2022-12-10T02:26:14;58.28;;;21.63;;
65206;SDS011;58477;48.072;11.970;2022-12-10T02:31:46;43.85;;;19.33;;
65206;SDS011;58477;48.072;11.970;2022-12-10T02:34:22;47.45;;;19.20;;
65206;SDS011;58477;48.072;11.970;2022-12-10T02:36:51;43.65;;;19.10;;
65206;SDS011;58477;48.072;11.970;2022-12-10T02:39:20;47.03;;;18.67;;
65206;SDS011;58477;48.072;11.970;2022-12-10T02:41:55;49.40;;;20.27;;
65206;SDS011;58477;48.072;11.970;2022-12-10T02:44:23;47.90;;;20.48;;
65206;SDS011;58477;48.072;11.970;2022-12-10T02:46:53;61.08;;;21.45;;
65206;SDS011;58477;48.072;11.970;2022-12-10T02:49:22;59.35;;;22.00;;
65206;SDS011;58477;48.072;11.970;2022-12-10T02:51:49;51.53;;;20.05;;
65206;SDS011;58477;48.072;11.970;2022-12-10T03:00:04;53.67;;;21.42;;
65206;SDS011;58477;48.072;11.970;2022-12-10T03:05:23;54.08;;;21.58;;
65206;SDS011;58477;48.072;11.970;2022-12-10T03:08:10;50.28;;;21.15;;
65206;SDS011;58477;48.072;11.970;2022-12-10T03:13:09;45.00;;;18.50;;
65206;SDS011;58477;48.072;11.970;2022-12-10T03:15:38;47.97;;;19.65;;
65206;SDS011;58477;48.072;11.970;2022-12-10T03:18:07;49.22;;;20.92;;
65206;SDS011;58477;48.072;11.970;2022-12-10T03:20:39;59.08;;;21.70;;
65206;SDS011;58477;48.072;11.970;2022-12-10T03:23:09;49.50;;;20.00;;
65206;SDS011;58477;48.072;11.970;2022-12-10T03:25:37;54.95;;;21.80;;
65206;SDS011;58477;48.072;11.970;2022-12-10T03:28:04;58.80;;;22.40;;
65206;SDS011;58477;48.072;11.970;2022-12-10T03:30:31;62.70;;;22.20;;
65206;SDS011;58477;48.072;11.970;2022-12-10T03:32:58;54.60;;;21.27;;
65206;SDS011;58477;48.072;11.970;2022-12-10T03:35:24;49.13;;;21.65;;
65206;SDS011;58477;48.072;11.970;2022-12-10T03:37:50;48.67;;;20.02;;
65206;SDS011;58477;48.072;11.970;2022-12-10T03:40:17;47.72;;;20.55;;
65206;SDS011;58477;48.072;11.970;2022-12-10T03:42:47;44.28;;;19.40;;
65206;SDS011;58477;48.072;11.970;2022-12-10T03:45:12;48.55;;;20.58;;
65206;SDS011;58477;48.072;11.970;2022-12-10T03:47:39;52.83;;;19.98;;
65206;SDS011;58477;48.072;11.970;2022-12-10T03:50:05;48.00;;;19.88;;
65206;SDS011;58477;48.072;11.970;2022-12-10T03:52:31;46.55;;;18.80;;
65206;SDS011;58477;48.072;11.970;2022-12-10T03:54:57;48.75;;;20.08;;
65206;SDS011;58477;48.072;11.970;2022-12-10T03:57:22;46.58;;;19.27;;
65206;SDS011;58477;48.072;11.970;2022-12-10T03:59:48;44.53;;;18.83;;
65206;SDS011;58477;48.072;11.970;2022-12-10T04:02:13;44.42;;;19.25;;
65206;SDS011;58477;48.072;11.970;2022-12-10T04:04:39;42.67;;;18.95;;
65206;SDS011;58477;48.072;11.970;2022-12-10T04:07:04;45.85;;;19.00;;
65206;SDS011;58477;48.072;11.970;2022-12-10T04:09:30;42.67;;;17.98;;
65206;SDS011;58477;48.072;11.970;2022-12-10T04:11:56;47.60;;;20.23;;
65206;SDS011;58477;48.072;11.970;2022-12-10T04:14:22;51.40;;;19.92;;
65206;SDS011;58477;48.072;11.970;2022-12-10T04:17:06;58.10;;;22.67;;
65206;SDS011;58477;48.072;11.970;2022-12-10T04:19:32;59.55;;;22.38;;
65206;SDS011;58477;48.072;11.970;2022-12-10T04:21:57;67.68;;;22.27;;
65206;SDS011;58477;48.072;11.970;2022-12-10T04:24:41;64.72;;;22.95;;
65206;SDS011;58477;48.072;11.970;2022-12-10T04:27:26;52.85;;;20.95;;
65206;SDS011;58477;48.072;11.970;2022-12-10T04:29:54;59.33;;;21.23;;
65206;SDS011;58477;48.072;11.970;2022-12-10T04:32:21;55.38;;;20.55;;
65206;SDS011;58477;48.072;11.970;2022-12-10T04:34:48;57.72;;;22.35;;
65206;SDS011;58477;48.072;11.970;2022-12-10T04:37:14;55.58;;;20.38;;
65206;SDS011;58477;48.072;11.970;2022-12-10T04:39:40;54.33;;;21.52;;
65206;SDS011;58477;48.072;11.970;2022-12-10T04:42:05;48.92;;;19.55;;
65206;SDS011;58477;48.072;11.970;2022-12-10T04:44:32;43.20;;;17.85;;
65206;SDS011;58477;48.072;11.970;2022-12-10T04:46:58;40.80;;;17.63;;
65206;SDS011;58477;48.072;11.970;2022-12-10T04:49:24;40.17;;;17.88;;
65206;SDS011;58477;48.072;11.970;2022-12-10T04:51:49;44.25;;;19.10;;
65206;SDS011;58477;48.072;11.970;2022-12-10T04:54:16;46.03;;;20.40;;
65206;SDS011;58477;48.072;11.970;2022-12-10T04:56:41;43.53;;;17.80;;
65206;SDS011;58477;48.072;11.970;2022-12-10T04:59:07;52.63;;;21.27;;
65206;SDS011;58477;48.072;11.970;2022-12-10T05:01:33;56.03;;;22.27;;
65206;SDS011;58477;48.072;11.970;2022-12-10T05:04:00;52.53;;;20.42;;
65206;SDS011;58477;48.072;11.970;2022-12-10T05:06:27;45.78;;;19.90;;
65206;SDS011;58477;48.072;11.970;2022-12-10T05:08:53;48.08;;;19.70;;
65206;SDS011;58477;48.072;11.970;2022-12-10T05:11:20;49.05;;;21.00;;
65206;SDS011;58477;48.072;11.970;2022-12-10T05:13:46;64.10;;;21.80;;
65206;SDS011;58477;48.072;11.970;2022-12-10T05:16:13;52.55;;;20.98;;
65206;SDS011;58477;48.072;11.970;2022-12-10T05:18:40;50.35;;;20.95;;
65206;SDS011;58477;48.072;11.970;2022-12-10T05:21:06;51.42;;;21.17;;
65206;SDS011;58477;48.072;11.970;2022-12-10T05:23:35;50.40;;;20.73;;
65206;SDS011;58477;48.072;11.970;2022-12-10T05:26:03;47.83;;;19.42;;
65206;SDS011;58477;48.072;11.970;2022-12-10T05:28:36;53.72;;;20.92;;
65206;SDS011;58477;48.072;11.970;2022-12-10T05:31:03;55.63;;;21.65;;
65206;SDS011;58477;48.072;11.970;2022-12-10T05:33:29;57.42;;;22.02;;
65206;SDS011;58477;48.072;11.970;2022-12-10T05:35:59;57.05;;;22.98;;
65206;SDS011;58477;48.072;11.970;2022-12-10T05:38:27;66.75;;;26.20;;
65206;SDS011;58477;48.072;11.970;2022-12-10T05:40:53;68.05;;;23.83;;
65206;SDS011;58477;48.072;11.970;2022-12-10T05:43:19;65.57;;;23.10;;
65206;SDS011;58477;48.072;11.970;2022-12-10T05:45:45;58.65;;;22.77;;
65206;SDS011;58477;48.072;11.970;2022-12-10T05:48:12;72.70;;;26.25;;
65206;SDS011;58477;48.072;11.970;2022-12-10T05:50:39;72.13;;;28.02;;
65206;SDS011;58477;48.072;11.970;2022-12-10T05:53:06;56.83;;;21.67;;
65206;SDS011;58477;48.072;11.970;2022-12-10T05:55:31;66.32;;;24.13;;
65206;SDS011;58477;48.072;11.970;2022-12-10T05:57:58;57.33;;;20.77;;
65206;SDS011;58477;48.072;11.970;2022-12-10T06:00:25;47.50;;;18.88;;
65206;SDS011;58477;48.072;11.970;2022-12-10T06:02:51;43.72;;;18.33;;
65206;SDS011;58477;48.072;11.970;2022-12-10T06:05:16;49.47;;;19.83;;
65206;SDS011;58477;48.072;11.970;2022-12-10T06:07:42;87.15;;;32.22;;
65206;SDS011;58477;48.072;11.970;2022-12-10T06:10:08;80.28;;;29.58;;
65206;SDS011;58477;48.072;11.970;2022-12-10T06:12:35;53.15;;;21.95;;
65206;SDS011;58477;48.072;11.970;2022-12-10T06:15:01;55.33;;;22.38;;
65206;SDS011;58477;48.072;11.970;2022-12-10T06:17:26;48.40;;;21.77;;
65206;SDS011;58477;48.072;11.970;2022-12-10T06:19:52;41.17;;;18.00;;
65206;SDS011;58477;48.072;11.970;2022-12-10T06:22:17;42.40;;;19.98;;
65206;SDS011;58477;48.072;11.970;2022-12-10T06:24:43;43.22;;;18.45;;
65206;SDS011;58477;48.072;11.970;2022-12-10T06:27:08;44.38;;;19.77;;
65206;SDS011;58477;48.072;11.970;2022-12-10T06:29:33;45.38;;;18.75;;
65206;SDS011;58477;48.072;11.970;2022-12-10T06:31:59;39.83;;;17.33;;
65206;SDS011;58477;48.072;11.970;2022-12-10T06:34:24;44.00;;;18.08;;
65206;SDS011;58477;48.072;11.970;2022-12-10T06:36:50;42.60;;;19.08;;
65206;SDS011;58477;48.072;11.970;2022-12-10T06:39:15;49.72;;;19.50;;
65206;SDS011;58477;48.072;11.970;2022-12-10T06:41:41;52.17;;;19.52;;
65206;SDS011;58477;48.072;11.970;2022-12-10T06:44:09;46.78;;;18.33;;
65206;SDS011;58477;48.072;11.970;2022-12-10T06:46:35;58.00;;;20.50;;
65206;SDS011;58477;48.072;11.970;2022-12-10T06:49:01;57.30;;;21.05;;
65206;SDS011;58477;48.072;11.970;2022-12-10T06:51:27;69.80;;;23.15;;
65206;SDS011;58477;48.072;11.970;2022-12-10T06:53:53;61.05;;;22.17;;
65206;SDS011;58477;48.072;11.970;2022-12-10T06:56:18;63.20;;;21.88;;
65206;SDS011;58477;48.072;11.970;2022-12-10T06:58:44;66.75;;;23.00;;
65206;SDS011;58477;48.072;11.970;2022-12-10T07:01:12;59.05;;;19.92;;
65206;SDS011;58477;48.072;11.970;2022-12-10T07:03:39;67.65;;;22.45;;
65206;SDS011;58477;48.072;11.970;2022-12-10T07:06:06;55.80;;;19.77;;
65206;SDS011;58477;48.072;11.970;2022-12-10T07:08:33;57.22;;;21.27;;
65206;SDS011;58477;48.072;11.970;2022-12-10T07:11:03;45.53;;;18.27;;
65206;SDS011;58477;48.072;11.970;2022-12-10T07:13:30;50.25;;;19.20;;
65206;SDS011;58477;48.072;11.970;2022-12-10T07:15:55;53.47;;;20.63;;
65206;SDS011;58477;48.072;11.970;2022-12-10T07:18:21;42.42;;;18.27;;
65206;SDS011;58477;48.072;11.970;2022-12-10T07:20:46;46.08;;;20.20;;
65206;SDS011;58477;48.072;11.970;2022-12-10T07:23:12;52.72;;;20.73;;
65206;SDS011;58477;48.072;11.970;2022-12-10T07:25:37;58.65;;;21.33;;
65206;SDS011;58477;48.072;11.970;2022-12-10T07:28:03;46.45;;;19.08;;
65206;SDS011;58477;48.072;11.970;2022-12-10T07:30:28;49.45;;;19.77;;
65206;SDS011;58477;48.072;11.970;2022-12-10T07:32:54;50.15;;;22.40;;
65206;SDS011;58477;48.072;11.970;2022-12-10T07:35:19;54.55;;;21.02;;
65206;SDS011;58477;48.072;11.970;2022-12-10T07:37:45;55.92;;;23.40;;
65206;SDS011;58477;48.072;11.970;2022-12-10T07:40:10;54.22;;;21.85;;
65206;SDS011;58477;48.072;11.970;2022-12-10T07:42:36;51.30;;;21.23;;
65206;SDS011;58477;48.072;11.970;2022-12-10T07:45:01;46.92;;;22.10;;
65206;SDS011;58477;48.072;11.970;2022-12-10T07:47:28;51.03;;;20.92;;
65206;SDS011;58477;48.072;11.970;2022-12-10T07:49:53;49.85;;;20.52;;
65206;SDS011;58477;48.072;11.970;2022-12-10T07:52:19;44.15;;;22.50;;
65206;SDS011;58477;48.072;11.970;2022-12-10T07:54:44;44.88;;;19.35;;
65206;SDS011;58477;48.072;11.970;2022-12-10T07:57:10;42.92;;;19.90;;
65206;SDS011;58477;48.072;11.970;2022-12-10T07:59:36;48.63;;;21.02;;
65206;SDS011;58477;48.072;11.970;2022-12-10T08:02:01;46.25;;;21.20;;
65206;SDS011;58477;48.072;11.970;2022-12-10T08:04:27;45.78;;;21.52;;
65206;SDS011;58477;48.072;11.970;2022-12-10T08:06:55;43.50;;;20.30;;
65206;SDS011;58477;48.072;11.970;2022-12-10T08:09:20;48.20;;;20.42;;
65206;SDS011;58477;48.072;11.970;2022-12-10T08:11:46;45.03;;;20.90;;
65206;SDS011;58477;48.072;11.970;2022-12-10T08:14:11;44.85;;;21.38;;
65206;SDS011;58477;48.072;11.970;2022-12-10T08:16:37;45.40;;;21.02;;
65206;SDS011;58477;48.072;11.970;2022-12-10T08:19:02;52.33;;;23.58;;
65206;SDS011;58477;48.072;11.970;2022-12-10T08:21:29;54.47;;;22.52;;
65206;SDS011;58477;48.072;11.970;2022-12-10T08:23:55;46.90;;;21.88;;
65206;SDS011;58477;48.072;11.970;2022-12-10T08:26:22;49.53;;;20.63;;
65206;SDS011;58477;48.072;11.970;2022-12-10T08:28:49;46.92;;;20.63;;
65206;SDS011;58477;48.072;11.970;2022-12-10T08:31:16;41.70;;;19.27;;
65206;SDS011;58477;48.072;11.970;2022-12-10T08:33:43;41.53;;;19.77;;
65206;SDS011;58477;48.072;11.970;2022-12-10T08:36:13;40.22;;;18.52;;
65206;SDS011;58477;48.072;11.970;2022-12-10T08:38:40;40.75;;;19.20;;
65206;SDS011;58477;48.072;11.970;2022-12-10T08:41:10;42.47;;;19.77;;
65206;SDS011;58477;48.072;11.970;2022-12-10T08:43:44;38.72;;;18.45;;
65206;SDS011;58477;48.072;11.970;2022-12-10T08:46:11;43.28;;;20.30;;
65206;SDS011;58477;48.072;11.970;2022-12-10T08:48:37;40.53;;;20.08;;
65206;SDS011;58477;48.072;11.970;2022-12-10T08:51:04;49.35;;;21.63;;
65206;SDS011;58477;48.072;11.970;2022-12-10T08:53:31;44.08;;;21.52;;
65206;SDS011;58477;48.072;11.970;2022-12-10T08:55:56;44.90;;;20.95;;
65206;SDS011;58477;48.072;11.970;2022-12-10T08:58:22;45.47;;;20.58;;
65206;SDS011;58477;48.072;11.970;2022-12-10T09:00:48;47.97;;;21.45;;
65206;SDS011;58477;48.072;11.970;2022-12-10T09:03:14;52.88;;;22.83;;
65206;SDS011;58477;48.072;11.970;2022-12-10T09:05:40;45.45;;;21.83;;
65206;SDS011;58477;48.072;11.970;2022-12-10T09:08:06;50.63;;;21.75;;
65206;SDS011;58477;48.072;11.970;2022-12-10T09:10:31;43.53;;;19.13;;
65206;SDS011;58477;48.072;11.970;2022-12-10T09:12:57;41.15;;;20.63;;
65206;SDS011;58477;48.072;11.970;2022-12-10T09:15:22;41.45;;;18.58;;
65206;SDS011;58477;48.072;11.970;2022-12-10T09:17:48;44.05;;;20.15;;
65206;SDS011;58477;48.072;11.970;2022-12-10T09:20:14;33.63;;;17.95;;
65206;SDS011;58477;48.072;11.970;2022-12-10T09:22:40;38.10;;;19.05;;
65206;SDS011;58477;48.072;11.970;2022-12-10T09:25:06;38.40;;;19.50;;
65206;SDS011;58477;48.072;11.970;2022-12-10T09:27:35;64.43;;;27.48;;
65206;SDS011;58477;48.072;11.970;2022-12-10T09:30:02;42.92;;;22.40;;
65206;SDS011;58477;48.072;11.970;2022-12-10T09:32:29;56.50;;;24.77;;
65206;SDS011;58477;48.072;11.970;2022-12-10T09:34:54;45.22;;;21.67;;
65206;SDS011;58477;48.072;11.970;2022-12-10T09:37:20;52.67;;;25.38;;
65206;SDS011;58477;48.072;11.970;2022-12-10T09:39:46;39.17;;;19.05;;
65206;SDS011;58477;48.072;11.970;2022-12-10T09:42:18;41.35;;;19.42;;
65206;SDS011;58477;48.072;11.970;2022-12-10T09:47:16;39.45;;;19.63;;
65206;SDS011;58477;48.072;11.970;2022-12-10T09:52:19;34.08;;;18.33;;
65206;SDS011;58477;48.072;11.970;2022-12-10T09:57:40;38.38;;;18.50;;
65206;SDS011;58477;48.072;11.970;2022-12-10T10:02:42;41.08;;;19.85;;
65206;SDS011;58477;48.072;11.970;2022-12-10T10:07:33;43.75;;;22.00;;
65206;SDS011;58477;48.072;11.970;2022-12-10T10:10:06;36.33;;;17.50;;
65206;SDS011;58477;48.072;11.970;2022-12-10T10:12:37;37.13;;;19.95;;
65206;SDS011;58477;48.072;11.970;2022-12-10T10:15:15;36.67;;;19.05;;
65206;SDS011;58477;48.072;11.970;2022-12-10T10:17:43;35.80;;;17.45;;
65206;SDS011;58477;48.072;11.970;2022-12-10T10:20:12;32.13;;;16.95;;
65206;SDS011;58477;48.072;11.970;2022-12-10T10:22:41;33.03;;;17.55;;
65206;SDS011;58477;48.072;11.970;2022-12-10T10:25:13;32.72;;;18.00;;
65206;SDS011;58477;48.072;11.970;2022-12-10T10:27:41;33.60;;;17.27;;
65206;SDS011;58477;48.072;11.970;2022-12-10T10:30:06;39.78;;;19.83;;
65206;SDS011;58477;48.072;11.970;2022-12-10T10:35:04;35.47;;;16.83;;
65206;SDS011;58477;48.072;11.970;2022-12-10T10:39:58;34.97;;;16.83;;
65206;SDS011;58477;48.072;11.970;2022-12-10T10:42:32;31.65;;;17.00;;
65206;SDS011;58477;48.072;11.970;2022-12-10T10:45:02;35.70;;;17.98;;
65206;SDS011;58477;48.072;11.970;2022-12-10T10:47:33;34.13;;;17.80;;
65206;SDS011;58477;48.072;11.970;2022-12-10T10:50:02;37.63;;;17.70;;
65206;SDS011;58477;48.072;11.970;2022-12-10T10:52:30;34.92;;;18.42;;
65206;SDS011;58477;48.072;11.970;2022-12-10T10:55:02;36.38;;;18.70;;
65206;SDS011;58477;48.072;11.970;2022-12-10T10:57:34;31.80;;;16.65;;
65206;SDS011;58477;48.072;11.970;2022-12-10T11:00:22;38.22;;;17.02;;
65206;SDS011;58477;48.072;11.970;2022-12-10T11:02:50;34.33;;;17.40;;
65206;SDS011;58477;48.072;11.970;2022-12-10T11:08:00;37.92;;;18.35;;
65206;SDS011;58477;48.072;11.970;2022-12-10T11:10:28;34.22;;;17.80;;
65206;SDS011;58477;48.072;11.970;2022-12-10T11:13:10;34.45;;;17.38;;
65206;SDS011;58477;48.072;11.970;2022-12-10T11:15:45;33.22;;;16.13;;
65206;SDS011;58477;48.072;11.970;2022-12-10T11:18:24;32.88;;;17.15;;
65206;SDS011;58477;48.072;11.970;2022-12-10T11:21:04;44.05;;;19.67;;
65206;SDS011;58477;48.072;11.970;2022-12-10T11:23:32;37.05;;;18.15;;
65206;SDS011;58477;48.072;11.970;2022-12-10T11:31:32;37.53;;;17.85;;
65206;SDS011;58477;48.072;11.970;2022-12-10T11:34:19;33.80;;;16.55;;
65206;SDS011;58477;48.072;11.970;2022-12-10T11:37:17;34.15;;;19.08;;
65206;SDS011;58477;48.072;11.970;2022-12-10T11:42:59;32.15;;;16.92;;
65206;SDS011;58477;48.072;11.970;2022-12-10T11:46:01;26.27;;;13.30;;
65206;SDS011;58477;48.072;11.970;2022-12-10T11:54:27;31.25;;;17.52;;
65206;SDS011;58477;48.072;11.970;2022-12-10T12:07:47;29.40;;;15.80;;
65206;SDS011;58477;48.072;11.970;2022-12-10T12:13:15;32.17;;;15.40;;
65206;SDS011;58477;48.072;11.970;2022-12-10T12:15:52;30.77;;;15.88;;
65206;SDS011;58477;48.072;11.970;2022-12-10T12:18:33;32.88;;;15.32;;
65206;SDS011;58477;48.072;11.970;2022-12-10T12:21:10;30.48;;;15.63;;
65206;SDS011;58477;48.072;11.970;2022-12-10T12:26:11;31.95;;;16.73;;
65206;SDS011;58477;48.072;11.970;2022-12-10T12:31:12;30.77;;;15.15;;
65206;SDS011;58477;48.072;11.970;2022-12-10T12:33:45;25.85;;;14.25;;
65206;SDS011;58477;48.072;11.970;2022-12-10T12:36:21;31.13;;;16.35;;
65206;SDS011;58477;48.072;11.970;2022-12-10T12:39:34;36.28;;;16.27;;
65206;SDS011;58477;48.072;11.970;2022-12-10T12:41:59;42.83;;;22.55;;
65206;SDS011;58477;48.072;11.970;2022-12-10T12:47:26;35.60;;;17.67;;
65206;SDS011;58477;48.072;11.970;2022-12-10T12:50:02;34.03;;;16.38;;
65206;SDS011;58477;48.072;11.970;2022-12-10T12:55:04;33.80;;;16.67;;
65206;SDS011;58477;48.072;11.970;2022-12-10T12:57:43;30.38;;;16.30;;
65206;SDS011;58477;48.072;11.970;2022-12-10T13:00:18;37.28;;;19.45;;
65206;SDS011;58477;48.072;11.970;2022-12-10T13:02:50;30.05;;;17.40;;
65206;SDS011;58477;48.072;11.970;2022-12-10T13:05:31;34.50;;;16.95;;
65206;SDS011;58477;48.072;11.970;2022-12-10T13:11:30;35.55;;;17.25;;
65206;SDS011;58477;48.072;11.970;2022-12-10T13:13:36;34.60;;;17.63;;
65206;SDS011;58477;48.072;11.970;2022-12-10T13:21:56;29.27;;;15.20;;
65206;SDS011;58477;48.072;11.970;2022-12-10T13:29:44;32.38;;;16.65;;
65206;SDS011;58477;48.072;11.970;2022-12-10T13:32:24;30.55;;;15.45;;
65206;SDS011;58477;48.072;11.970;2022-12-10T13:40:37;45.90;;;21.23;;
65206;SDS011;58477;48.072;11.970;2022-12-10T13:43:29;37.13;;;17.92;;
65206;SDS011;58477;48.072;11.970;2022-12-10T13:46:35;33.90;;;17.30;;
65206;SDS011;58477;48.072;11.970;2022-12-10T13:49:20;35.85;;;17.83;;
65206;SDS011;58477;48.072;11.970;2022-12-10T14:05:32;35.13;;;18.17;;
65206;SDS011;58477;48.072;11.970;2022-12-10T14:08:18;54.15;;;23.10;;
65206;SDS011;58477;48.072;11.970;2022-12-10T14:10:48;47.47;;;21.45;;
65206;SDS011;58477;48.072;11.970;2022-12-10T14:13:15;33.00;;;17.85;;
65206;SDS011;58477;48.072;11.970;2022-12-10T14:15:53;38.65;;;19.55;;
65206;SDS011;58477;48.072;11.970;2022-12-10T14:18:20;46.83;;;20.60;;
65206;SDS011;58477;48.072;11.970;2022-12-10T14:20:48;48.60;;;23.33;;
65206;SDS011;58477;48.072;11.970;2022-12-10T14:23:24;113.68;;;40.15;;
65206;SDS011;58477;48.072;11.970;2022-12-10T14:26:12;54.58;;;23.10;;
65206;SDS011;58477;48.072;11.970;2022-12-10T14:28:47;42.47;;;20.27;;
65206;SDS011;58477;48.072;11.970;2022-12-10T14:34:12;40.83;;;19.38;;
65206;SDS011;58477;48.072;11.970;2022-12-10T14:36:46;51.50;;;25.85;;
65206;SDS011;58477;48.072;11.970;2022-12-10T14:39:20;51.70;;;22.33;;
65206;SDS011;58477;48.072;11.970;2022-12-10T14:41:50;47.35;;;19.67;;
65206;SDS011;58477;48.072;11.970;2022-12-10T14:44:17;42.10;;;20.70;;
65206;SDS011;58477;48.072;11.970;2022-12-10T14:46:46;40.63;;;20.95;;
65206;SDS011;58477;48.072;11.970;2022-12-10T14:49:17;39.95;;;20.20;;
65206;SDS011;58477;48.072;11.970;2022-12-10T14:51:46;39.95;;;20.42;;
65206;SDS011;58477;48.072;11.970;2022-12-10T14:57:08;44.00;;;20.85;;
65206;SDS011;58477;48.072;11.970;2022-12-10T15:00:22;43.60;;;21.38;;
65206;SDS011;58477;48.072;11.970;2022-12-10T15:02:38;42.05;;;20.20;;
65206;SDS011;58477;48.072;11.970;2022-12-10T15:05:13;44.85;;;21.50;;
65206;SDS011;58477;48.072;11.970;2022-12-10T15:07:52;45.78;;;21.58;;
65206;SDS011;58477;48.072;11.970;2022-12-10T15:10:24;38.30;;;19.48;;
65206;SDS011;58477;48.072;11.970;2022-12-10T15:12:52;43.35;;;20.60;;
65206;SDS011;58477;48.072;11.970;2022-12-10T15:15:24;38.53;;;19.63;;
65206;SDS011;58477;48.072;11.970;2022-12-10T15:18:00;38.92;;;18.33;;
65206;SDS011;58477;48.072;11.970;2022-12-10T15:28:43;34.67;;;18.63;;
65206;SDS011;58477;48.072;11.970;2022-12-10T15:33:54;38.78;;;18.90;;
65206;SDS011;58477;48.072;11.970;2022-12-10T15:36:35;38.92;;;19.52;;
65206;SDS011;58477;48.072;11.970;2022-12-10T15:39:17;21.92;;;12.30;;
65206;SDS011;58477;48.072;11.970;2022-12-10T15:41:53;40.20;;;19.23;;
65206;SDS011;58477;48.072;11.970;2022-12-10T15:44:27;37.30;;;18.65;;
65206;SDS011;58477;48.072;11.970;2022-12-10T15:47:19;38.13;;;16.52;;
65206;SDS011;58477;48.072;11.970;2022-12-10T15:49:49;33.55;;;14.90;;
65206;SDS011;58477;48.072;11.970;2022-12-10T15:52:18;29.02;;;13.95;;
65206;SDS011;58477;48.072;11.970;2022-12-10T15:54:47;28.35;;;13.98;;
65206;SDS011;58477;48.072;11.970;2022-12-10T15:57:15;29.58;;;14.10;;
65206;SDS011;58477;48.072;11.970;2022-12-10T15:59:46;40.28;;;17.60;;
65206;SDS011;58477;48.072;11.970;2022-12-10T16:03:00;33.47;;;15.32;;
65206;SDS011;58477;48.072;11.970;2022-12-10T16:05:00;28.20;;;11.52;;
65206;SDS011;58477;48.072;11.970;2022-12-10T16:07:27;27.55;;;12.25;;
65206;SDS011;58477;48.072;11.970;2022-12-10T16:09:53;22.38;;;10.88;;
65206;SDS011;58477;48.072;11.970;2022-12-10T16:12:19;36.13;;;15.90;;
65206;SDS011;58477;48.072;11.970;2022-12-10T16:14:51;25.83;;;11.63;;
65206;SDS011;58477;48.072;11.970;2022-12-10T16:17:21;21.73;;;11.95;;
65206;SDS011;58477;48.072;11.970;2022-12-10T16:19:47;24.63;;;10.88;;
65206;SDS011;58477;48.072;11.970;2022-12-10T16:22:13;28.33;;;12.55;;
65206;SDS011;58477;48.072;11.970;2022-12-10T16:24:38;32.95;;;13.68;;
65206;SDS011;58477;48.072;11.970;2022-12-10T16:27:13;16.48;;;8.68;;
65206;SDS011;58477;48.072;11.970;2022-12-10T16:29:40;33.92;;;12.93;;
65206;SDS011;58477;48.072;11.970;2022-12-10T16:32:08;27.98;;;12.90;;
65206;SDS011;58477;48.072;11.970;2022-12-10T16:34:35;20.42;;;9.05;;
65206;SDS011;58477;48.072;11.970;2022-12-10T16:37:00;25.85;;;11.77;;
65206;SDS011;58477;48.072;11.970;2022-12-10T16:39:25;18.55;;;9.75;;